aviador You're here:

KFRM Decoded Metar

FAIRMONT MUNI in MN, USA
Report Time2017-08-22 01:56:00
UTC Time2017-08-22 03:28:21
Flight Rules Old
Wind270° at 10 kt
W.Decomp.*RWY 31: 7.2 kt HW 6.9 kt LCW
RWY 20: 4.1 kt HW 9.1 kt RCW
W.Rank270° ranks 19
Current wind is above 270° avg. (9.1)
Visibility9999 m
Phenomena:N/A
Clouds:N/A
Expected CloudBase > 800 ft AGL from Temp-Dew spread
CeilingNone
Temp19°C (ISA +6)
Dew Point17°C (88% RH)
AAT17.8°C
QNH1014 hPa
Density Alt2,129 ft
Elevation1,161 ft
Report Wrong Elevation
Raw Report
METAR KFRM 220156Z AUTO 27010KT 10SM CLR 19/17 A2994 RMK AO2 SLP138
T01890172 $=

Extra information for KFRM:More info

Metar Taf Metar & Taf Last 4 Metars F.Rules Stats Wind Profile Meteogram Temp Stats Airport Information Weather charts Add Link Nearby VenuesMetar ALERT Operation Metar Decoded Social comments

AIRNAV info for KFRM